createdAt,value
2019-02-23T00:01:12.166Z,17.33
2019-02-23T00:03:41.961Z,21.80
2019-02-23T00:06:11.524Z,20.00
2019-02-23T00:08:41.078Z,17.40
2019-02-23T00:11:10.795Z,19.30
2019-02-23T00:13:40.271Z,22.03
2019-02-23T00:16:09.758Z,22.53
2019-02-23T00:18:39.330Z,20.23
2019-02-23T00:21:09.156Z,25.00
2019-02-23T00:23:38.638Z,21.87
2019-02-23T00:26:08.108Z,19.77
2019-02-23T00:28:37.626Z,22.53
2019-02-23T00:31:07.111Z,22.53
2019-02-23T00:33:36.579Z,22.10
2019-02-23T00:36:06.330Z,22.80
2019-02-23T00:38:36.198Z,21.10
2019-02-23T00:41:06.010Z,20.00
2019-02-23T00:43:35.479Z,23.30
2019-02-23T00:46:05.004Z,26.97
2019-02-23T00:48:34.555Z,24.43
2019-02-23T00:51:04.025Z,24.60
2019-02-23T00:53:33.494Z,20.80
2019-02-23T00:56:03.229Z,23.40
2019-02-23T00:58:32.716Z,24.23
2019-02-23T01:01:02.478Z,22.00
2019-02-23T01:03:32.322Z,22.77
2019-02-23T01:06:02.099Z,22.97
2019-02-23T01:08:32.119Z,22.63
2019-02-23T01:11:01.603Z,27.67
2019-02-23T01:13:31.561Z,24.50
2019-02-23T01:16:01.037Z,26.57
2019-02-23T01:18:30.525Z,28.63
2019-02-23T01:20:59.986Z,21.87
2019-02-23T01:23:29.462Z,20.10
2019-02-23T01:25:58.990Z,23.53
2019-02-23T01:28:28.894Z,25.10
2019-02-23T01:30:58.471Z,28.47
2019-02-23T01:33:28.019Z,26.40
2019-02-23T01:35:57.489Z,26.00
2019-02-23T01:38:26.964Z,28.23
2019-02-23T01:40:56.500Z,26.37
2019-02-23T01:43:25.985Z,23.87
2019-02-23T01:45:55.468Z,26.13
2019-02-23T01:48:24.945Z,26.83
2019-02-23T01:50:54.442Z,22.20
2019-02-23T01:53:23.993Z,25.73
2019-02-23T01:55:53.527Z,22.73
2019-02-23T01:58:23.101Z,27.87
2019-02-23T02:00:52.883Z,27.27
2019-02-23T02:03:22.657Z,23.97
2019-02-23T02:05:52.353Z,29.33
2019-02-23T02:08:22.004Z,23.43
2019-02-23T02:10:51.811Z,27.63
2019-02-23T02:13:22.171Z,24.37
2019-02-23T02:15:51.943Z,23.60
2019-02-23T02:18:21.694Z,24.03
2019-02-23T02:20:51.241Z,26.23
2019-02-23T02:23:20.783Z,25.37
2019-02-23T02:25:50.430Z,20.87
2019-02-23T02:28:19.921Z,25.20
2019-02-23T02:30:49.397Z,22.83
2019-02-23T02:33:18.903Z,28.70
2019-02-23T02:35:48.364Z,24.17
2019-02-23T02:38:17.852Z,24.80
2019-02-23T02:40:47.316Z,25.80
2019-02-23T02:43:16.795Z,25.43
2019-02-23T02:45:46.343Z,21.03
2019-02-23T02:48:15.846Z,23.70
2019-02-23T02:50:45.309Z,26.23
2019-02-23T02:53:14.794Z,26.63
2019-02-23T02:55:44.281Z,21.27
2019-02-23T02:58:13.755Z,22.37
2019-02-23T03:00:43.235Z,25.37
2019-02-23T03:03:12.788Z,31.20
2019-02-23T03:05:42.454Z,25.13
2019-02-23T03:08:11.961Z,26.13
2019-02-23T03:10:41.447Z,20.23
2019-02-23T03:13:10.942Z,29.53
2019-02-23T03:15:40.598Z,21.03
2019-02-23T03:18:10.445Z,25.03
2019-02-23T03:20:39.980Z,24.13
2019-02-23T03:23:09.474Z,23.27
2019-02-23T03:25:38.947Z,25.60
2019-02-23T03:28:08.419Z,27.17
2019-02-23T03:30:38.159Z,25.43
2019-02-23T03:33:07.627Z,20.60
2019-02-23T03:35:37.101Z,28.87
2019-02-23T03:38:07.188Z,22.80
2019-02-23T03:40:36.837Z,27.03
2019-02-23T03:43:06.303Z,23.20
2019-02-23T03:45:36.220Z,24.80
2019-02-23T03:48:05.681Z,23.27
2019-02-23T03:50:35.226Z,26.10
2019-02-23T03:53:05.038Z,24.20
2019-02-23T03:55:34.511Z,28.40
2019-02-23T03:58:04.001Z,26.73
2019-02-23T04:00:33.478Z,26.73
2019-02-23T04:03:03.481Z,30.80
2019-02-23T04:05:33.321Z,28.17
2019-02-23T04:08:02.837Z,24.20
2019-02-23T04:10:32.326Z,26.63
2019-02-23T04:13:02.131Z,25.80
2019-02-23T04:15:31.789Z,23.90
2019-02-23T04:18:01.330Z,28.77
2019-02-23T04:20:30.914Z,29.13
2019-02-23T04:23:00.366Z,22.07
2019-02-23T04:25:29.925Z,27.47
2019-02-23T04:27:59.392Z,26.67
2019-02-23T04:30:28.879Z,26.27
2019-02-23T04:32:58.342Z,27.97
2019-02-23T04:35:27.898Z,23.77
2019-02-23T04:37:57.424Z,26.27
2019-02-23T04:40:27.217Z,24.40
2019-02-23T04:42:57.115Z,28.07
2019-02-23T04:45:26.611Z,27.47
2019-02-23T04:47:56.452Z,27.90
2019-02-23T04:50:25.944Z,28.40
2019-02-23T04:52:55.751Z,26.73
2019-02-23T04:55:25.288Z,28.87
2019-02-23T04:57:54.790Z,28.87
2019-02-23T05:00:30.118Z,29.30
2019-02-23T05:02:59.826Z,27.10
2019-02-23T05:05:29.325Z,25.83
2019-02-23T05:07:58.792Z,23.60
2019-02-23T05:10:28.543Z,26.67
2019-02-23T05:12:58.218Z,27.13
2019-02-23T05:15:27.706Z,27.57
2019-02-23T05:17:57.486Z,29.30
2019-02-23T05:20:26.963Z,24.47
2019-02-23T05:22:56.431Z,26.80
2019-02-23T05:25:25.918Z,28.53
2019-02-23T05:27:55.403Z,24.80
2019-02-23T05:30:24.898Z,25.27
2019-02-23T05:32:54.351Z,26.27
2019-02-23T05:35:24.129Z,25.83
2019-02-23T05:37:53.768Z,25.07
2019-02-23T05:40:23.314Z,30.40
2019-02-23T05:43:00.927Z,26.07
2019-02-23T05:45:24.059Z,30.17
2019-02-23T05:47:53.893Z,30.80
2019-02-23T05:50:23.365Z,27.80
2019-02-23T05:52:52.825Z,30.97
2019-02-23T05:55:22.586Z,26.53
2019-02-23T05:57:52.047Z,29.73
2019-02-23T06:00:21.883Z,28.70
2019-02-23T06:02:51.347Z,32.60
2019-02-23T06:05:21.155Z,33.83
2019-02-23T06:07:50.786Z,24.60
2019-02-23T06:10:20.272Z,29.73
2019-02-23T06:12:49.742Z,23.00
2019-02-23T06:15:19.511Z,32.20
2019-02-23T06:17:49.015Z,30.87
2019-02-23T06:20:18.540Z,33.43
2019-02-23T06:22:48.390Z,32.37
2019-02-23T06:25:18.062Z,37.47
2019-02-23T06:27:47.936Z,28.07
2019-02-23T06:30:18.525Z,25.90
2019-02-23T06:32:48.050Z,29.73
2019-02-23T06:35:17.543Z,31.90
2019-02-23T06:37:47.381Z,28.13
2019-02-23T06:40:17.322Z,22.90
2019-02-23T06:42:46.804Z,31.37
2019-02-23T06:45:16.623Z,26.17
2019-02-23T06:47:46.439Z,29.70
2019-02-23T06:50:15.931Z,28.80
2019-02-23T06:52:45.396Z,26.70
2019-02-23T06:55:15.923Z,31.33
2019-02-23T06:57:46.001Z,24.90
2019-02-23T07:00:16.117Z,25.97
2019-02-23T07:02:45.581Z,22.10
2019-02-23T07:05:15.333Z,19.97
2019-02-23T07:07:44.800Z,22.90
2019-02-23T07:10:14.743Z,20.60
2019-02-23T07:12:44.213Z,18.27
2019-02-23T07:15:14.123Z,21.23
2019-02-23T07:17:43.589Z,18.53
2019-02-23T07:20:13.054Z,18.60
2019-02-23T07:22:42.803Z,19.70
2019-02-23T07:25:12.312Z,20.17
2019-02-23T07:27:41.771Z,20.57
2019-02-23T07:30:13.444Z,20.33
2019-02-23T07:32:42.910Z,21.33
2019-02-23T07:35:12.397Z,18.00
2019-02-23T07:37:42.398Z,20.43
2019-02-23T07:40:13.817Z,24.07
2019-02-23T07:42:43.288Z,20.13
2019-02-23T07:45:12.772Z,18.80
2019-02-23T07:47:42.252Z,22.80
2019-02-23T07:50:15.870Z,24.60
2019-02-23T07:52:45.667Z,24.20
2019-02-23T07:55:15.131Z,25.73
2019-02-23T07:57:44.602Z,25.20
2019-02-23T08:00:14.469Z,27.00
2019-02-23T08:02:43.936Z,24.07
2019-02-23T08:05:13.669Z,25.93
2019-02-23T08:07:43.197Z,21.60
2019-02-23T08:10:13.089Z,23.03
2019-02-23T08:12:42.842Z,23.80
2019-02-23T08:15:12.574Z,18.83
2019-02-23T08:17:42.055Z,22.30
2019-02-23T08:20:15.162Z,21.33
2019-02-23T08:22:45.078Z,21.57
2019-02-23T08:25:15.933Z,18.97
2019-02-23T08:27:45.915Z,18.87
2019-02-23T08:30:16.859Z,19.47
2019-02-23T08:32:46.680Z,20.13
2019-02-23T08:35:16.225Z,24.60
2019-02-23T08:37:46.173Z,17.23
2019-02-23T08:40:17.169Z,19.53
2019-02-23T08:42:47.161Z,24.83
2019-02-23T08:45:16.922Z,16.70
2019-02-23T08:47:46.393Z,18.13
2019-02-23T08:50:16.220Z,18.07
2019-02-23T08:52:49.800Z,22.73
2019-02-23T08:55:16.874Z,19.33
2019-02-23T08:57:46.371Z,16.73
2019-02-23T09:00:18.013Z,20.03
2019-02-23T09:02:47.708Z,22.13
2019-02-23T09:05:17.543Z,19.53
2019-02-23T09:07:47.175Z,17.03
2019-02-23T09:10:16.958Z,17.80
2019-02-23T09:12:46.421Z,20.80
2019-02-23T09:15:15.883Z,20.10
2019-02-23T09:17:45.604Z,17.67
2019-02-23T09:20:15.114Z,20.40
2019-02-23T09:22:44.901Z,19.83
2019-02-23T09:25:14.851Z,22.43
2019-02-23T09:27:44.327Z,17.63
2019-02-23T09:30:14.610Z,18.17
2019-02-23T09:32:44.167Z,21.70
2019-02-23T09:35:13.776Z,21.37
2019-02-23T09:37:43.307Z,19.97
2019-02-23T09:40:15.207Z,18.23
2019-02-23T09:42:44.681Z,16.70
2019-02-23T09:45:14.138Z,20.97
2019-02-23T09:47:43.938Z,24.20
2019-02-23T09:50:13.476Z,19.40
2019-02-23T09:52:42.972Z,21.93
2019-02-23T09:55:12.488Z,18.90
2019-02-23T09:57:42.285Z,19.87
2019-02-23T10:00:13.353Z,19.50
2019-02-23T10:02:43.169Z,20.50
2019-02-23T10:05:12.648Z,19.23
2019-02-23T10:07:42.395Z,19.13
2019-02-23T10:10:12.492Z,18.87
2019-02-23T10:12:41.966Z,19.87
2019-02-23T10:15:12.010Z,16.47
2019-02-23T10:17:41.494Z,15.53
2019-02-23T10:20:12.292Z,21.00
2019-02-23T10:22:41.768Z,19.03
2019-02-23T10:25:11.229Z,17.60
2019-02-23T10:27:41.065Z,16.23
2019-02-23T10:30:15.408Z,18.87
2019-02-23T10:32:44.963Z,16.90
2019-02-23T10:35:14.535Z,17.07
2019-02-23T10:37:44.005Z,16.73
2019-02-23T10:40:13.533Z,16.70
2019-02-23T10:42:43.011Z,16.93
2019-02-23T10:45:13.201Z,19.17
2019-02-23T10:47:43.156Z,16.83
2019-02-23T10:50:14.156Z,19.27
2019-02-23T10:52:43.883Z,16.17
2019-02-23T10:55:16.277Z,17.00
2019-02-23T10:57:46.807Z,17.80
2019-02-23T11:00:20.613Z,15.90
2019-02-23T11:02:50.098Z,17.63
2019-02-23T11:05:20.386Z,15.60
2019-02-23T11:07:49.856Z,14.87
2019-02-23T11:10:19.666Z,14.43
2019-02-23T11:12:49.151Z,15.77
2019-02-23T11:15:20.244Z,17.73
2019-02-23T11:17:50.234Z,16.00
2019-02-23T11:20:19.980Z,14.47
2019-02-23T11:22:49.958Z,15.10
2019-02-23T11:25:19.393Z,13.73
2019-02-23T11:27:49.297Z,12.83
2019-02-23T11:30:18.789Z,15.90
2019-02-23T11:32:48.279Z,12.17
2019-02-23T11:35:18.019Z,14.20
2019-02-23T11:37:47.930Z,11.13
2019-02-23T11:40:17.374Z,11.03
2019-02-23T11:42:46.864Z,14.40
2019-02-23T11:45:16.636Z,11.87
2019-02-23T11:47:46.174Z,10.03
2019-02-23T11:50:16.093Z,10.13
2019-02-23T11:52:45.571Z,11.27
2019-02-23T11:55:15.055Z,9.73
2019-02-23T11:57:44.531Z,13.10
2019-02-23T12:00:15.402Z,9.37
2019-02-23T12:02:52.447Z,11.50
2019-02-23T12:05:16.408Z,10.43
2019-02-23T12:07:45.893Z,10.00
2019-02-23T12:10:18.040Z,10.13
2019-02-23T12:12:47.551Z,9.87
2019-02-23T12:15:16.983Z,10.07
2019-02-23T12:17:46.767Z,9.30
2019-02-23T12:20:16.220Z,8.27
2019-02-23T12:22:45.685Z,8.17
2019-02-23T12:25:16.150Z,9.07
2019-02-23T12:27:45.977Z,8.83
2019-02-23T12:30:15.426Z,7.20
2019-02-23T12:32:45.252Z,8.13
2019-02-23T12:35:14.689Z,8.50
2019-02-23T12:37:44.186Z,7.63
2019-02-23T12:40:13.703Z,6.63
2019-02-23T12:42:43.166Z,6.97
2019-02-23T12:45:13.547Z,6.30
2019-02-23T12:47:43.294Z,8.13
2019-02-23T12:50:13.722Z,8.23
2019-02-23T12:52:43.178Z,7.93
2019-02-23T12:55:12.793Z,7.43
2019-02-23T12:57:42.310Z,8.93
2019-02-23T13:00:18.484Z,7.10
2019-02-23T13:02:47.957Z,8.37
2019-02-23T13:05:17.724Z,8.97
2019-02-23T13:07:47.194Z,6.43
2019-02-23T13:10:16.652Z,7.80
2019-02-23T13:12:58.769Z,7.20
2019-02-23T13:15:37.249Z,6.73
2019-02-23T13:18:24.735Z,6.63
2019-02-23T13:21:00.154Z,8.57
2019-02-23T13:23:49.497Z,8.13
2019-02-23T13:26:55.409Z,7.60
2019-02-23T13:29:48.839Z,6.60
2019-02-23T13:32:30.001Z,6.97
2019-02-23T13:35:26.899Z,6.97
2019-02-23T13:38:05.272Z,7.83
2019-02-23T13:40:40.603Z,8.23
2019-02-23T13:43:22.538Z,8.10
2019-02-23T13:45:58.354Z,7.83
2019-02-23T13:49:04.318Z,7.43
2019-02-23T13:51:37.027Z,7.83
2019-02-23T13:54:18.297Z,9.30
2019-02-23T13:56:56.712Z,7.43
2019-02-23T13:59:40.981Z,7.43
2019-02-23T14:02:28.303Z,9.60
2019-02-23T14:05:20.577Z,10.27
2019-02-23T14:08:13.921Z,6.97
2019-02-23T14:11:01.260Z,9.67
2019-02-23T14:13:39.562Z,8.27
2019-02-23T14:16:18.064Z,9.40
2019-02-23T14:19:14.991Z,9.30
2019-02-23T14:21:50.469Z,7.63
2019-02-23T14:24:23.115Z,7.83
2019-02-23T14:27:19.846Z,9.40
2019-02-23T14:30:09.607Z,8.17
2019-02-23T14:32:58.774Z,8.43
2019-02-23T14:35:47.932Z,8.57
2019-02-23T14:38:37.536Z,8.70
2019-02-23T14:41:18.455Z,11.37
2019-02-23T14:43:57.131Z,9.17
2019-02-23T14:46:32.411Z,10.40
2019-02-23T14:49:31.152Z,13.30
2019-02-23T14:52:24.800Z,9.97
2019-02-23T14:55:13.754Z,12.33
2019-02-23T14:58:01.326Z,12.43
2019-02-23T15:00:59.304Z,11.17
2019-02-23T15:03:41.188Z,11.50
2019-02-23T15:06:19.940Z,10.60
2019-02-23T15:09:09.506Z,13.83
2019-02-23T15:11:50.782Z,11.50
2019-02-23T15:14:38.368Z,13.40
2019-02-23T15:17:34.760Z,11.63
2019-02-23T15:20:39.175Z,13.80
2019-02-23T15:23:20.962Z,11.40
2019-02-23T15:26:17.325Z,13.00
2019-02-23T15:29:07.923Z,15.73
2019-02-23T15:31:55.390Z,13.00
2019-02-23T15:34:42.820Z,13.30
2019-02-23T15:37:21.744Z,17.80
2019-02-23T15:40:15.405Z,16.30
2019-02-23T15:42:51.193Z,16.37
2019-02-23T15:45:40.228Z,16.33
2019-02-23T15:48:15.699Z,17.73
2019-02-23T15:50:45.256Z,17.33
2019-02-23T15:53:15.079Z,18.47
2019-02-23T15:55:44.870Z,19.33
2019-02-23T15:58:14.670Z,18.77
2019-02-23T16:00:44.354Z,16.53
2019-02-23T16:03:13.894Z,18.73
2019-02-23T16:05:43.347Z,15.90
2019-02-23T16:08:13.119Z,17.17
2019-02-23T16:10:42.579Z,15.90
2019-02-23T16:13:12.130Z,16.17
2019-02-23T16:15:41.620Z,15.63
2019-02-23T16:18:11.064Z,15.70
2019-02-23T16:20:40.534Z,18.60
2019-02-23T16:23:09.984Z,14.97
2019-02-23T16:25:39.454Z,17.23
2019-02-23T16:28:09.127Z,19.63
2019-02-23T16:30:38.594Z,16.60
2019-02-23T16:33:08.038Z,18.47
2019-02-23T16:35:37.594Z,15.03
2019-02-23T16:38:07.393Z,15.70
2019-02-23T16:40:36.874Z,14.13
2019-02-23T16:43:06.327Z,16.53
2019-02-23T16:45:35.814Z,15.70
2019-02-23T16:48:05.297Z,14.73
2019-02-23T16:50:34.732Z,15.93
2019-02-23T16:53:04.194Z,16.03
2019-02-23T16:55:33.678Z,12.50
2019-02-23T16:58:03.128Z,12.43
2019-02-23T17:00:32.593Z,15.43
2019-02-23T17:03:02.045Z,14.77
2019-02-23T17:05:31.511Z,15.37
2019-02-23T17:08:01.444Z,13.37
2019-02-23T17:10:30.982Z,14.27
2019-02-23T17:13:00.459Z,11.03
2019-02-23T17:15:29.935Z,14.33
2019-02-23T17:17:59.411Z,14.10
2019-02-23T17:20:28.865Z,15.53
2019-02-23T17:22:58.337Z,12.27
2019-02-23T17:25:27.781Z,16.70
2019-02-23T17:27:57.591Z,13.87
2019-02-23T17:30:27.044Z,13.60
2019-02-23T17:32:56.777Z,13.17
2019-02-23T17:35:26.226Z,12.73
2019-02-23T17:37:56.027Z,12.23
2019-02-23T17:40:25.474Z,12.97
2019-02-23T17:42:54.934Z,12.80
2019-02-23T17:45:24.479Z,15.83
2019-02-23T17:47:53.947Z,14.20
2019-02-23T17:50:23.399Z,13.90
2019-02-23T17:52:52.858Z,15.00
2019-02-23T17:55:22.307Z,16.77
2019-02-23T17:57:51.777Z,14.00
2019-02-23T18:00:22.883Z,14.93
2019-02-23T18:02:52.755Z,12.30
2019-02-23T18:05:22.202Z,11.37
2019-02-23T18:07:51.912Z,12.57
2019-02-23T18:10:21.674Z,14.23
2019-02-23T18:12:51.130Z,14.20
2019-02-23T18:15:20.621Z,11.40
2019-02-23T18:17:50.376Z,16.80
2019-02-23T18:20:19.826Z,13.30
2019-02-23T18:22:49.310Z,15.13
2019-02-23T18:25:19.101Z,13.97
2019-02-23T18:27:48.562Z,12.07
2019-02-23T18:30:18.300Z,12.97
2019-02-23T18:32:47.849Z,16.63
2019-02-23T18:35:17.360Z,13.70
2019-02-23T18:37:46.813Z,12.53
2019-02-23T18:40:16.273Z,13.47
2019-02-23T18:42:45.742Z,14.37
2019-02-23T18:45:15.189Z,16.23
2019-02-23T18:47:44.664Z,17.30
2019-02-23T18:50:14.104Z,17.17
2019-02-23T18:52:43.571Z,16.03
2019-02-23T18:55:13.038Z,15.73
2019-02-23T18:57:42.778Z,14.70
2019-02-23T19:00:13.231Z,15.07
2019-02-23T19:02:42.698Z,14.57
2019-02-23T19:05:13.089Z,15.90
2019-02-23T19:07:42.861Z,13.17
2019-02-23T19:10:13.639Z,15.23
2019-02-23T19:12:43.411Z,18.77
2019-02-23T19:15:13.626Z,13.87
2019-02-23T19:17:43.192Z,19.83
2019-02-23T19:20:14.312Z,14.07
2019-02-23T19:22:43.770Z,18.40
2019-02-23T19:25:13.247Z,15.93
2019-02-23T19:27:42.714Z,15.87
2019-02-23T19:30:13.739Z,15.23
2019-02-23T19:32:43.190Z,14.50
2019-02-23T19:35:12.918Z,15.27
2019-02-23T19:37:42.375Z,16.00
2019-02-23T19:40:11.909Z,21.50
2019-02-23T19:42:41.382Z,21.57
2019-02-23T19:45:11.948Z,16.40
2019-02-23T19:47:42.612Z,14.97
2019-02-23T19:50:18.171Z,27.50
2019-02-23T19:52:47.993Z,21.70
2019-02-23T19:55:17.547Z,21.73
2019-02-23T19:57:47.010Z,23.47
2019-02-23T20:00:16.819Z,18.90
2019-02-23T20:02:46.285Z,23.30
2019-02-23T20:05:16.150Z,20.00
2019-02-23T20:07:45.621Z,22.40
2019-02-23T20:10:15.148Z,18.60
2019-02-23T20:12:44.634Z,22.83
2019-02-23T20:15:14.173Z,21.20
2019-02-23T20:17:43.688Z,23.77
2019-02-23T20:20:13.147Z,17.47
2019-02-23T20:22:42.647Z,25.77
2019-02-23T20:25:12.475Z,30.50
2019-02-23T20:27:42.484Z,22.30
2019-02-23T20:30:12.746Z,25.53
2019-02-23T20:32:42.218Z,28.33
2019-02-23T20:35:11.782Z,21.17
2019-02-23T20:37:41.253Z,28.47
2019-02-23T20:40:10.770Z,25.60
2019-02-23T20:42:40.241Z,24.07
2019-02-23T20:45:09.972Z,29.13
2019-02-23T20:47:39.729Z,26.10
2019-02-23T20:50:10.570Z,30.90
2019-02-23T20:52:40.052Z,21.57
2019-02-23T20:55:10.028Z,28.07
2019-02-23T20:57:39.508Z,23.40
2019-02-23T21:00:12.310Z,35.17
2019-02-23T21:02:43.271Z,24.23
2019-02-23T21:05:17.410Z,29.80
2019-02-23T21:07:54.202Z,31.57
2019-02-23T21:10:34.293Z,31.67
2019-02-23T21:13:08.727Z,34.03
2019-02-23T21:15:41.913Z,32.27
2019-02-23T21:18:32.723Z,35.83
2019-02-23T21:21:05.584Z,29.40
2019-02-23T21:23:36.179Z,36.30
2019-02-23T21:26:13.345Z,30.87
2019-02-23T21:28:52.346Z,30.60
2019-02-23T21:31:29.669Z,28.47
2019-02-23T21:34:04.068Z,34.73
2019-02-23T21:36:49.405Z,31.97
2019-02-23T21:39:25.275Z,31.00
2019-02-23T21:41:58.352Z,30.53
2019-02-23T21:44:34.210Z,28.23
2019-02-23T21:47:07.568Z,25.37
2019-02-23T21:49:41.834Z,26.20
2019-02-23T21:52:16.345Z,33.23
2019-02-23T21:54:55.688Z,34.27
2019-02-23T21:57:39.064Z,29.37
2019-02-23T22:03:09.885Z,32.97
2019-02-23T22:05:42.741Z,26.60
2019-02-23T22:08:16.325Z,27.97
2019-02-23T22:10:47.801Z,29.90
2019-02-23T22:13:19.135Z,30.63
2019-02-23T22:15:59.414Z,27.20
2019-02-23T22:18:47.155Z,22.67
2019-02-23T22:21:25.664Z,26.37
2019-02-23T22:23:59.988Z,29.17
2019-02-23T22:26:33.422Z,23.87
2019-02-23T22:29:08.022Z,27.53
2019-02-23T22:31:48.112Z,32.00
2019-02-23T22:34:19.009Z,28.20
2019-02-23T22:37:00.065Z,30.63
2019-02-23T22:39:34.380Z,30.93
2019-02-23T22:42:07.161Z,31.37
2019-02-23T22:44:40.464Z,28.30
2019-02-23T22:47:38.518Z,30.83
2019-02-23T22:50:13.156Z,26.13
2019-02-23T22:52:56.903Z,24.27
2019-02-23T22:55:29.469Z,26.47
2019-02-23T22:58:10.754Z,25.30
2019-02-23T23:00:59.057Z,26.20
2019-02-23T23:03:40.509Z,27.30
2019-02-23T23:06:15.008Z,20.27
2019-02-23T23:08:48.303Z,22.33
2019-02-23T23:11:20.371Z,26.10
2019-02-23T23:13:56.209Z,28.50
2019-02-23T23:16:38.939Z,25.27
2019-02-23T23:19:13.033Z,27.67
2019-02-23T23:25:00.480Z,25.03
2019-02-23T23:27:32.561Z,25.50
2019-02-23T23:30:11.592Z,28.30
2019-02-23T23:32:44.675Z,28.93
2019-02-23T23:35:18.019Z,27.47
2019-02-23T23:37:51.902Z,28.97
2019-02-23T23:40:36.085Z,28.27
2019-02-23T23:43:14.705Z,25.93
2019-02-23T23:45:47.255Z,27.60
2019-02-23T23:48:28.714Z,24.50
2019-02-23T23:51:06.664Z,28.73
2019-02-23T23:53:49.613Z,20.70
2019-02-23T23:56:25.163Z,23.53
2019-02-23T23:59:01.113Z,21.67
